Pure Air, Missouri
Current Conditions -  °F | °C
As of 2:38 AM on Sunday 23 Nov 2014 (Local Time) from KIRK Reporting Station
Overcast Overcast  
Wind Chill: 53°   Ceiling: 3300
Heat Index: 53°   Visibility: 10mi
Dew Point: 50°   Wind: 10mph
Humidity: 89%   Direction: 170°S
Pressure: 29.69"   Gusts: NA
Location:  40.2969°N, 92.7524°W
Report Text: KIRK 230838Z AUTO 17009KT 10SM SCT026 OVC033 12/10 A2969 RMK AO2 T01170100
Loading
Personal Weather Stations






























Interactive Weather Map New forecast layout! Learn more

10-Day Weather Forecast

Advertisements
Track Severe Weather on mobile